createdAt,value
2019-03-05T00:02:01.553Z,8.03
2019-03-05T00:04:30.103Z,7.91
2019-03-05T00:06:58.722Z,7.73
2019-03-05T00:09:27.236Z,7.50
2019-03-05T00:11:55.852Z,7.49
2019-03-05T00:14:24.492Z,7.39
2019-03-05T00:16:53.166Z,7.28
2019-03-05T00:19:21.786Z,7.26
2019-03-05T00:21:50.447Z,7.32
2019-03-05T00:24:55.459Z,7.40
2019-03-05T00:27:24.264Z,7.40
2019-03-05T00:29:58.274Z,7.49
2019-03-05T00:32:26.984Z,7.47
2019-03-05T00:35:18.899Z,7.62
2019-03-05T00:37:50.491Z,7.85
2019-03-05T00:40:34.258Z,7.89
2019-03-05T00:43:08.709Z,7.67
2019-03-05T00:45:46.061Z,7.56
2019-03-05T00:48:44.598Z,7.41
2019-03-05T00:51:43.343Z,7.31
2019-03-05T00:54:20.673Z,7.29
2019-03-05T00:57:25.705Z,7.17
2019-03-05T01:00:09.288Z,7.21
2019-03-05T01:02:53.042Z,7.21
2019-03-05T01:05:50.117Z,7.29
2019-03-05T01:08:19.786Z,7.30
2019-03-05T01:10:48.428Z,7.44
2019-03-05T01:13:17.022Z,7.72
2019-03-05T01:15:45.627Z,7.62
2019-03-05T01:18:14.524Z,7.52
2019-03-05T01:20:43.082Z,7.51
2019-03-05T01:23:11.603Z,7.49
2019-03-05T01:25:40.397Z,7.37
2019-03-05T01:28:09.042Z,7.38
2019-03-05T01:31:02.965Z,7.45
2019-03-05T01:33:33.135Z,7.38
2019-03-05T01:36:06.408Z,7.36
2019-03-05T01:38:45.646Z,7.35
2019-03-05T01:41:14.393Z,7.37
2019-03-05T01:43:42.996Z,7.51
2019-03-05T01:46:11.532Z,7.69
2019-03-05T01:48:40.114Z,7.84
2019-03-05T01:51:08.796Z,7.77
2019-03-05T01:53:37.266Z,7.67
2019-03-05T01:56:05.872Z,7.58
2019-03-05T01:58:34.311Z,7.50
2019-03-05T02:01:03.006Z,7.40
2019-03-05T02:03:31.573Z,7.36
2019-03-05T02:06:00.151Z,7.32
2019-03-05T02:08:28.762Z,7.34
2019-03-05T02:10:57.400Z,7.32
2019-03-05T02:13:26.017Z,7.32
2019-03-05T02:15:54.624Z,7.20
2019-03-05T02:18:26.130Z,7.17
2019-03-05T02:20:55.641Z,7.29
2019-03-05T02:23:36.007Z,7.53
2019-03-05T02:26:25.904Z,7.51
2019-03-05T02:29:03.447Z,7.30
2019-03-05T02:31:43.768Z,7.09
2019-03-05T02:34:30.347Z,7.11
2019-03-05T02:37:23.212Z,7.06
2019-03-05T02:40:20.204Z,6.98
2019-03-05T02:43:03.532Z,6.87
2019-03-05T02:45:44.081Z,6.86
2019-03-05T02:48:44.723Z,7.01
2019-03-05T02:51:18.910Z,7.01
2019-03-05T02:54:08.503Z,6.98
2019-03-05T02:56:43.107Z,7.10
2019-03-05T02:59:10.438Z,6.99
2019-03-05T03:01:55.939Z,6.99
2019-03-05T03:04:26.205Z,6.87
2019-03-05T03:06:54.853Z,6.81
2019-03-05T03:09:32.493Z,6.73
2019-03-05T03:12:01.083Z,6.70
2019-03-05T03:14:29.721Z,6.77
2019-03-05T03:17:17.436Z,6.76
2019-03-05T03:19:46.038Z,6.65
2019-03-05T03:22:14.625Z,6.59
2019-03-05T03:24:43.248Z,6.52
2019-03-05T03:27:12.070Z,6.41
2019-03-05T03:29:40.815Z,6.46
2019-03-05T03:32:10.411Z,6.65
2019-03-05T03:34:39.180Z,6.72
2019-03-05T03:37:07.779Z,6.62
2019-03-05T03:39:36.343Z,6.56
2019-03-05T03:42:05.160Z,6.47
2019-03-05T03:44:33.793Z,6.44
2019-03-05T03:47:02.292Z,6.37
2019-03-05T03:49:30.921Z,6.42
2019-03-05T03:51:59.423Z,6.39
2019-03-05T03:54:27.990Z,6.44
2019-03-05T03:56:56.613Z,6.40
2019-03-05T03:59:25.182Z,6.37
2019-03-05T04:01:53.804Z,6.36
2019-03-05T04:04:22.370Z,6.33
2019-03-05T04:06:51.264Z,6.53
2019-03-05T04:09:19.874Z,6.82
2019-03-05T04:11:48.462Z,6.80
2019-03-05T04:14:17.089Z,6.67
2019-03-05T04:16:45.851Z,6.60
2019-03-05T04:19:16.112Z,6.59
2019-03-05T04:21:44.712Z,6.55
2019-03-05T04:24:13.290Z,6.56
2019-03-05T04:26:41.829Z,6.61
2019-03-05T04:29:10.467Z,6.66
2019-03-05T04:31:40.287Z,6.68
2019-03-05T04:34:08.843Z,6.68
2019-03-05T04:36:37.324Z,6.60
2019-03-05T04:39:08.892Z,6.60
2019-03-05T04:41:37.437Z,6.71
2019-03-05T04:44:05.971Z,7.02
2019-03-05T04:46:35.281Z,7.01
2019-03-05T04:49:08.474Z,6.89
2019-03-05T04:51:44.554Z,6.79
2019-03-05T04:54:13.241Z,6.69
2019-03-05T04:56:41.834Z,6.65
2019-03-05T04:59:10.850Z,6.71
2019-03-05T05:01:39.446Z,6.80
2019-03-05T05:04:08.051Z,6.75
2019-03-05T05:06:36.624Z,6.74
2019-03-05T05:09:07.232Z,6.70
2019-03-05T05:11:35.803Z,6.71
2019-03-05T05:14:04.414Z,6.69
2019-03-05T05:16:33.116Z,6.75
2019-03-05T05:19:01.695Z,6.95
2019-03-05T05:21:30.282Z,6.96
2019-03-05T05:23:58.867Z,6.86
2019-03-05T05:26:27.447Z,6.82
2019-03-05T05:28:55.960Z,6.74
2019-03-05T05:31:24.710Z,6.80
2019-03-05T05:33:53.152Z,6.76
2019-03-05T05:36:21.708Z,6.70
2019-03-05T05:38:50.276Z,6.60
2019-03-05T05:41:18.886Z,6.60
2019-03-05T05:43:47.475Z,6.60
2019-03-05T05:46:16.104Z,6.67
2019-03-05T05:48:44.567Z,6.77
2019-03-05T05:51:13.106Z,6.83
2019-03-05T05:53:41.605Z,7.02
2019-03-05T05:56:10.802Z,7.12
2019-03-05T05:58:39.395Z,7.04
2019-03-05T06:01:09.634Z,7.06
2019-03-05T06:03:38.243Z,6.92
2019-03-05T06:06:06.939Z,6.87
2019-03-05T06:08:35.446Z,6.84
2019-03-05T06:11:04.080Z,6.86
2019-03-05T06:13:32.719Z,6.72
2019-03-05T06:16:01.248Z,6.81
2019-03-05T06:18:29.779Z,6.78
2019-03-05T06:20:58.400Z,6.80
2019-03-05T06:23:26.954Z,6.86
2019-03-05T06:25:55.687Z,6.87
2019-03-05T06:28:24.266Z,7.08
2019-03-05T06:30:53.151Z,7.32
2019-03-05T06:33:22.003Z,7.14
2019-03-05T06:35:50.387Z,6.99
2019-03-05T06:38:19.022Z,6.81
2019-03-05T06:40:47.633Z,6.78
2019-03-05T06:43:16.237Z,6.81
2019-03-05T06:45:44.743Z,6.74
2019-03-05T06:48:13.290Z,6.73
2019-03-05T06:50:41.804Z,6.75
2019-03-05T06:53:11.024Z,6.78
2019-03-05T06:55:39.567Z,6.81
2019-03-05T06:58:08.229Z,6.75
2019-03-05T07:00:42.536Z,6.84
2019-03-05T07:03:11.270Z,7.02
2019-03-05T07:06:16.630Z,7.29
2019-03-05T07:08:56.699Z,7.19
2019-03-05T07:11:47.876Z,6.92
2019-03-05T07:14:34.799Z,6.81
2019-03-05T07:17:09.176Z,6.80
2019-03-05T07:19:43.664Z,6.78
2019-03-05T07:22:24.020Z,6.71
2019-03-05T07:24:52.591Z,6.60
2019-03-05T07:27:26.754Z,6.58
2019-03-05T07:29:57.856Z,6.76
2019-03-05T07:32:26.481Z,6.67
2019-03-05T07:34:55.109Z,6.74
2019-03-05T07:37:23.691Z,6.77
2019-03-05T07:39:52.318Z,6.96
2019-03-05T07:42:20.817Z,6.92
2019-03-05T07:44:49.375Z,6.78
2019-03-05T07:47:17.875Z,6.67
2019-03-05T07:49:46.409Z,6.61
2019-03-05T07:52:14.871Z,6.45
2019-03-05T07:54:43.337Z,6.32
2019-03-05T07:57:11.869Z,6.25
2019-03-05T07:59:41.212Z,6.22
2019-03-05T08:02:09.911Z,6.27
2019-03-05T08:04:38.498Z,6.35
2019-03-05T08:07:07.151Z,6.30
2019-03-05T08:09:39.018Z,6.16
2019-03-05T08:12:31.707Z,6.23
2019-03-05T08:15:21.637Z,6.34
2019-03-05T08:17:50.143Z,6.51
2019-03-05T08:20:18.753Z,6.32
2019-03-05T08:22:47.354Z,6.25
2019-03-05T08:25:15.945Z,6.27
2019-03-05T08:27:44.516Z,6.33
2019-03-05T08:30:17.791Z,6.32
2019-03-05T08:32:46.364Z,6.31
2019-03-05T08:35:14.980Z,6.33
2019-03-05T08:37:43.573Z,6.41
2019-03-05T08:40:14.180Z,6.49
2019-03-05T08:42:42.876Z,6.55
2019-03-05T08:45:14.465Z,6.59
2019-03-05T08:47:43.154Z,6.87
2019-03-05T08:50:15.677Z,7.00
2019-03-05T08:52:44.297Z,7.10
2019-03-05T08:55:13.295Z,7.00
2019-03-05T08:57:41.896Z,6.96
2019-03-05T09:00:16.878Z,6.94
2019-03-05T09:02:48.801Z,7.06
2019-03-05T09:05:17.631Z,7.08
2019-03-05T09:07:46.322Z,7.13
2019-03-05T09:10:17.730Z,7.14
2019-03-05T09:12:47.165Z,7.21
2019-03-05T09:15:19.696Z,7.33
2019-03-05T09:17:48.685Z,7.41
2019-03-05T09:20:21.260Z,7.53
2019-03-05T09:22:49.885Z,7.71
2019-03-05T09:25:19.387Z,7.90
2019-03-05T09:27:47.991Z,8.00
2019-03-05T09:30:21.385Z,7.92
2019-03-05T09:32:50.093Z,7.89
2019-03-05T09:35:18.736Z,7.77
2019-03-05T09:37:47.715Z,7.74
2019-03-05T09:40:22.012Z,7.63
2019-03-05T09:42:50.899Z,7.59
2019-03-05T09:45:20.882Z,7.58
2019-03-05T09:47:49.622Z,7.72
2019-03-05T09:50:19.261Z,7.94
2019-03-05T09:52:54.874Z,8.18
2019-03-05T09:55:26.629Z,8.32
2019-03-05T09:58:06.984Z,8.68
2019-03-05T10:00:30.477Z,9.08
2019-03-05T10:02:59.062Z,9.49
2019-03-05T10:05:27.772Z,9.27
2019-03-05T10:07:56.400Z,9.05
2019-03-05T10:10:29.882Z,8.91
2019-03-05T10:13:03.724Z,8.73
2019-03-05T10:15:29.761Z,8.77
2019-03-05T10:17:58.368Z,8.67
2019-03-05T10:20:29.240Z,8.65
2019-03-05T10:22:59.666Z,8.72
2019-03-05T10:25:28.871Z,8.80
2019-03-05T10:27:58.068Z,8.89
2019-03-05T10:30:28.716Z,9.00
2019-03-05T10:33:00.443Z,9.17
2019-03-05T10:35:29.294Z,9.33
2019-03-05T10:38:00.958Z,9.39
2019-03-05T10:40:38.538Z,9.31
2019-03-05T10:43:09.294Z,9.24
2019-03-05T10:45:39.250Z,9.37
2019-03-05T10:48:07.838Z,9.56
2019-03-05T10:50:36.460Z,9.71
2019-03-05T10:53:05.474Z,9.64
2019-03-05T10:55:34.186Z,9.58
2019-03-05T10:58:02.960Z,9.47
2019-03-05T11:00:37.761Z,9.37
2019-03-05T11:03:06.549Z,9.33
2019-03-05T11:05:37.561Z,9.29
2019-03-05T11:08:06.963Z,9.34
2019-03-05T11:10:36.371Z,9.46
2019-03-05T11:13:04.953Z,9.58
2019-03-05T11:15:35.338Z,9.56
2019-03-05T11:18:06.892Z,9.58
2019-03-05T11:20:35.661Z,9.63
2019-03-05T11:23:05.173Z,9.75
2019-03-05T11:25:33.859Z,9.85
2019-03-05T11:28:03.773Z,9.92
2019-03-05T11:30:36.599Z,9.91
2019-03-05T11:33:05.560Z,9.97
2019-03-05T11:35:35.014Z,10.00
2019-03-05T11:38:03.932Z,10.02
2019-03-05T11:40:34.186Z,9.99
2019-03-05T11:43:14.098Z,10.15
2019-03-05T11:45:44.503Z,10.61
2019-03-05T11:48:13.702Z,11.14
2019-03-05T11:50:42.465Z,11.56
2019-03-05T11:53:12.094Z,11.49
2019-03-05T11:55:40.723Z,11.32
2019-03-05T11:58:09.352Z,11.42
2019-03-05T12:00:57.794Z,11.71
2019-03-05T12:03:26.324Z,11.56
2019-03-05T12:05:54.942Z,11.49
2019-03-05T12:08:23.620Z,11.24
2019-03-05T12:10:52.219Z,11.15
2019-03-05T12:13:21.198Z,11.27
2019-03-05T12:15:50.122Z,11.59
2019-03-05T12:18:18.641Z,11.51
2019-03-05T12:20:47.284Z,11.37
2019-03-05T12:23:15.942Z,11.41
2019-03-05T12:25:44.626Z,11.73
2019-03-05T12:28:13.258Z,11.93
2019-03-05T12:30:42.170Z,12.18
2019-03-05T12:33:12.479Z,12.53
2019-03-05T12:35:42.108Z,12.90
2019-03-05T12:38:10.767Z,13.16
2019-03-05T12:40:39.494Z,13.23
2019-03-05T12:43:08.104Z,13.46
2019-03-05T12:45:36.715Z,13.54
2019-03-05T12:48:05.475Z,13.45
2019-03-05T12:50:36.433Z,13.04
2019-03-05T12:53:06.589Z,12.66
2019-03-05T12:55:35.241Z,12.48
2019-03-05T12:58:03.831Z,12.05
2019-03-05T13:00:34.705Z,11.84
2019-03-05T13:03:03.728Z,11.77
2019-03-05T13:05:32.333Z,11.79
2019-03-05T13:08:00.842Z,12.25
2019-03-05T13:10:35.976Z,12.25
2019-03-05T13:13:03.979Z,12.18
2019-03-05T13:15:34.705Z,12.33
2019-03-05T13:18:03.594Z,12.09
2019-03-05T13:20:32.167Z,11.69
2019-03-05T13:23:00.788Z,11.69
2019-03-05T13:25:29.953Z,11.61
2019-03-05T13:28:02.297Z,11.26
2019-03-05T13:30:30.285Z,10.98
2019-03-05T13:33:00.645Z,11.21
2019-03-05T13:35:30.754Z,11.56
2019-03-05T13:38:07.631Z,11.82
2019-03-05T13:40:38.561Z,12.04
2019-03-05T13:43:06.750Z,12.21
2019-03-05T13:45:35.572Z,12.24
2019-03-05T13:48:07.657Z,12.29
2019-03-05T13:50:48.111Z,12.30
2019-03-05T13:53:59.956Z,12.35
2019-03-05T13:56:45.739Z,12.24
2019-03-05T13:59:33.880Z,12.00
2019-03-05T14:02:02.458Z,11.90
2019-03-05T14:04:36.820Z,12.02
2019-03-05T14:07:14.029Z,11.94
2019-03-05T14:09:41.271Z,11.75
2019-03-05T14:12:09.969Z,11.78
2019-03-05T14:14:38.628Z,12.04
2019-03-05T14:17:11.753Z,12.29
2019-03-05T14:19:40.370Z,12.50
2019-03-05T14:22:08.955Z,12.49
2019-03-05T14:24:37.554Z,12.44
2019-03-05T14:27:06.261Z,12.54
2019-03-05T14:29:34.858Z,12.72
2019-03-05T14:32:03.476Z,12.93
2019-03-05T14:34:32.150Z,12.89
2019-03-05T14:37:00.625Z,12.80
2019-03-05T14:39:32.659Z,12.66
2019-03-05T14:42:02.146Z,12.66
2019-03-05T14:44:39.357Z,12.63
2019-03-05T14:47:03.517Z,12.67
2019-03-05T14:49:32.134Z,12.80
2019-03-05T14:52:00.726Z,12.97
2019-03-05T14:54:29.430Z,13.03
2019-03-05T14:56:57.934Z,13.01
2019-03-05T14:59:26.797Z,13.00
2019-03-05T15:01:55.334Z,13.02
2019-03-05T15:04:23.870Z,13.01
2019-03-05T15:06:52.464Z,12.94
2019-03-05T15:09:21.408Z,12.81
2019-03-05T15:11:50.134Z,12.68
2019-03-05T15:14:18.832Z,12.51
2019-03-05T15:16:47.503Z,12.56
2019-03-05T15:19:21.438Z,12.97
2019-03-05T15:21:46.389Z,12.97
2019-03-05T15:24:15.082Z,12.91
2019-03-05T15:26:43.728Z,12.76
2019-03-05T15:29:12.617Z,12.56
2019-03-05T15:31:41.339Z,12.42
2019-03-05T15:34:10.016Z,12.32
2019-03-05T15:36:38.594Z,12.18
2019-03-05T15:39:07.765Z,11.97
2019-03-05T15:41:36.380Z,11.84
2019-03-05T15:44:05.005Z,11.75
2019-03-05T15:46:33.641Z,11.68
2019-03-05T15:49:02.126Z,11.68
2019-03-05T15:51:30.849Z,11.74
2019-03-05T15:53:59.479Z,11.80
2019-03-05T15:56:28.146Z,11.73
2019-03-05T15:58:56.800Z,11.77
2019-03-05T16:01:25.391Z,11.85
2019-03-05T16:03:54.009Z,11.99
2019-03-05T16:06:22.661Z,12.13
2019-03-05T16:08:51.291Z,12.07
2019-03-05T16:11:19.983Z,12.00
2019-03-05T16:13:52.360Z,11.95
2019-03-05T16:16:19.416Z,11.92
2019-03-05T16:18:48.041Z,11.76
2019-03-05T16:21:16.667Z,11.65
2019-03-05T16:23:45.210Z,11.51
2019-03-05T16:26:13.934Z,11.47
2019-03-05T16:28:43.511Z,11.41
2019-03-05T16:31:14.332Z,11.33
2019-03-05T16:33:45.786Z,11.21
2019-03-05T16:36:29.190Z,11.21
2019-03-05T16:39:04.940Z,11.27
2019-03-05T16:41:37.841Z,11.27
2019-03-05T16:44:24.561Z,11.28
2019-03-05T16:46:57.898Z,11.33
2019-03-05T16:49:34.323Z,11.33
2019-03-05T16:52:19.496Z,11.27
2019-03-05T16:54:52.319Z,11.21
2019-03-05T16:57:40.846Z,11.21
2019-03-05T17:00:14.344Z,11.13
2019-03-05T17:02:47.144Z,11.01
2019-03-05T17:05:26.406Z,11.00
2019-03-05T17:08:05.526Z,11.02
2019-03-05T17:10:35.748Z,11.03
2019-03-05T17:13:04.657Z,11.01
2019-03-05T17:15:33.302Z,10.92
2019-03-05T17:18:01.895Z,10.85
2019-03-05T17:20:30.475Z,10.78
2019-03-05T17:22:59.093Z,10.68
2019-03-05T17:25:27.657Z,10.64
2019-03-05T17:27:56.259Z,10.60
2019-03-05T17:30:24.973Z,10.53
2019-03-05T17:32:53.548Z,10.52
2019-03-05T17:35:22.554Z,10.53
2019-03-05T17:37:51.214Z,10.52
2019-03-05T17:40:19.685Z,10.51
2019-03-05T17:42:50.138Z,10.50
2019-03-05T17:45:22.959Z,10.44
2019-03-05T17:47:51.689Z,10.42
2019-03-05T17:50:20.214Z,10.36
2019-03-05T17:52:48.831Z,10.30
2019-03-05T17:55:25.275Z,10.28
2019-03-05T17:57:52.766Z,10.23
2019-03-05T18:00:33.009Z,10.18
2019-03-05T18:03:01.659Z,10.17
2019-03-05T18:05:31.800Z,10.13
2019-03-05T18:08:00.410Z,10.10
2019-03-05T18:10:29.107Z,10.08
2019-03-05T18:12:57.722Z,10.05
2019-03-05T18:15:28.818Z,10.02
2019-03-05T18:17:56.700Z,10.01
2019-03-05T18:20:25.313Z,10.01
2019-03-05T18:22:53.973Z,10.08
2019-03-05T18:25:22.560Z,10.10
2019-03-05T18:27:51.177Z,10.10
2019-03-05T18:30:29.622Z,10.16
2019-03-05T18:32:58.560Z,10.16
2019-03-05T18:35:27.168Z,10.13
2019-03-05T18:37:55.779Z,10.13
2019-03-05T18:40:26.315Z,10.09
2019-03-05T18:42:54.910Z,10.10
2019-03-05T18:45:27.948Z,10.07
2019-03-05T18:47:56.730Z,10.02
2019-03-05T18:50:25.459Z,10.01
2019-03-05T18:52:56.292Z,10.00
2019-03-05T18:55:25.699Z,9.95
2019-03-05T18:57:54.719Z,9.83
2019-03-05T19:00:28.893Z,9.82
2019-03-05T19:03:05.572Z,9.76
2019-03-05T19:05:35.110Z,9.74
2019-03-05T19:08:04.530Z,9.70
2019-03-05T19:10:33.160Z,9.66
2019-03-05T19:13:01.833Z,9.61
2019-03-05T19:15:31.033Z,9.60
2019-03-05T19:17:59.891Z,9.60
2019-03-05T19:20:30.514Z,9.56
2019-03-05T19:22:59.963Z,9.55
2019-03-05T19:25:30.179Z,9.53
2019-03-05T19:27:58.793Z,9.48
2019-03-05T19:30:30.323Z,9.52
2019-03-05T19:32:58.943Z,9.51
2019-03-05T19:35:27.633Z,9.56
2019-03-05T19:37:56.273Z,9.53
2019-03-05T19:40:39.198Z,9.51
2019-03-05T19:43:08.026Z,9.40
2019-03-05T19:45:36.799Z,9.30
2019-03-05T19:48:05.990Z,9.31
2019-03-05T19:50:34.611Z,9.24
2019-03-05T19:53:03.214Z,9.22
2019-03-05T19:55:31.810Z,9.26
2019-03-05T19:58:10.210Z,9.26
2019-03-05T20:00:43.020Z,9.19
2019-03-05T20:03:13.224Z,9.23
2019-03-05T20:05:41.844Z,9.29
2019-03-05T20:08:10.354Z,9.29
2019-03-05T20:10:39.285Z,9.20
2019-03-05T20:13:07.898Z,9.13
2019-03-05T20:15:36.465Z,9.06
2019-03-05T20:18:07.193Z,9.00
2019-03-05T20:20:35.440Z,9.05
2019-03-05T20:23:03.985Z,9.04
2019-03-05T20:25:33.050Z,9.03
2019-03-05T20:28:01.624Z,8.99
2019-03-05T20:30:30.322Z,9.03
2019-03-05T20:32:58.987Z,9.02
2019-03-05T20:35:27.558Z,8.98
2019-03-05T20:37:56.175Z,8.93
2019-03-05T20:40:26.676Z,8.84
2019-03-05T20:42:55.289Z,8.85
2019-03-05T20:45:31.917Z,8.80
2019-03-05T20:48:00.532Z,8.84
2019-03-05T20:50:29.202Z,8.83
2019-03-05T20:52:57.817Z,8.84
2019-03-05T20:55:27.688Z,8.76
2019-03-05T20:57:56.308Z,8.74
2019-03-05T21:00:29.608Z,8.66
2019-03-05T21:02:59.996Z,8.54
2019-03-05T21:05:30.981Z,8.59
2019-03-05T21:07:59.617Z,8.64
2019-03-05T21:10:28.209Z,8.60
2019-03-05T21:12:56.833Z,8.64
2019-03-05T21:15:25.806Z,8.64
2019-03-05T21:17:55.328Z,8.50
2019-03-05T21:20:23.973Z,8.50
2019-03-05T21:22:52.567Z,8.42
2019-03-05T21:25:21.479Z,8.40
2019-03-05T21:27:50.092Z,8.41
2019-03-05T21:30:27.340Z,8.38
2019-03-05T21:32:56.029Z,8.35
2019-03-05T21:35:24.572Z,8.34
2019-03-05T21:37:53.474Z,8.33
2019-03-05T21:40:27.418Z,8.40
2019-03-05T21:42:56.150Z,8.33
2019-03-05T21:45:39.250Z,8.32
2019-03-05T21:48:07.867Z,8.30
2019-03-05T21:50:36.547Z,8.31
2019-03-05T21:53:05.732Z,8.26
2019-03-05T21:55:34.306Z,8.22
2019-03-05T21:58:02.943Z,8.15
2019-03-05T22:00:35.981Z,8.13
2019-03-05T22:03:05.282Z,8.14
2019-03-05T22:05:34.539Z,8.12
2019-03-05T22:08:03.147Z,8.20
2019-03-05T22:10:31.778Z,8.24
2019-03-05T22:13:00.413Z,8.29
2019-03-05T22:15:34.023Z,8.28
2019-03-05T22:18:02.585Z,8.30
2019-03-05T22:20:31.398Z,8.26
2019-03-05T22:23:00.395Z,8.25
2019-03-05T22:25:29.363Z,8.27
2019-03-05T22:27:58.252Z,8.31
2019-03-05T22:30:32.071Z,8.35
2019-03-05T22:33:00.651Z,8.46
2019-03-05T22:35:29.276Z,8.45
2019-03-05T22:37:57.997Z,8.47
2019-03-05T22:40:27.924Z,8.52
2019-03-05T22:42:56.552Z,8.53
2019-03-05T22:45:30.019Z,8.60
2019-03-05T22:47:58.648Z,8.61
2019-03-05T22:50:27.236Z,8.61
2019-03-05T22:52:55.937Z,8.63
2019-03-05T22:55:24.542Z,8.63
2019-03-05T22:57:53.134Z,8.62
2019-03-05T23:00:31.794Z,8.63
2019-03-05T23:03:01.480Z,8.65
2019-03-05T23:05:30.191Z,8.72
2019-03-05T23:07:58.889Z,8.80
2019-03-05T23:10:27.468Z,8.76
2019-03-05T23:12:56.294Z,8.78
2019-03-05T23:15:25.028Z,8.86
2019-03-05T23:17:53.727Z,8.81
2019-03-05T23:20:22.388Z,8.81
2019-03-05T23:22:51.056Z,8.81
2019-03-05T23:25:20.608Z,8.76
2019-03-05T23:27:49.273Z,8.78
2019-03-05T23:30:20.342Z,8.80
2019-03-05T23:32:53.511Z,8.81
2019-03-05T23:35:22.326Z,8.91
2019-03-05T23:37:50.981Z,8.95
2019-03-05T23:40:19.911Z,9.00
2019-03-05T23:42:48.658Z,9.00
2019-03-05T23:45:18.544Z,8.94
2019-03-05T23:47:47.277Z,8.88
2019-03-05T23:50:16.571Z,8.95
2019-03-05T23:52:45.382Z,9.00
2019-03-05T23:55:14.756Z,8.99
2019-03-05T23:57:43.945Z,9.05
